sensor_id;sensor_type;location;lat;lon;timestamp;pressure;altitude;pressure_sealevel;temperature;humidity
44079;BME280;29744;49.078;12.878;2023-04-03T00:02:10;96984.31;;;14.71;36.40
44079;BME280;29744;49.078;12.878;2023-04-03T00:07:11;96990.81;;;14.70;36.11
44079;BME280;29744;49.078;12.878;2023-04-03T00:12:12;96993.81;;;14.68;36.09
44079;BME280;29744;49.078;12.878;2023-04-03T00:17:12;96993.03;;;14.68;36.18
44079;BME280;29744;49.078;12.878;2023-04-03T00:22:13;96991.44;;;14.67;36.52
44079;BME280;29744;49.078;12.878;2023-04-03T00:27:13;96991.75;;;14.65;36.42
44079;BME280;29744;49.078;12.878;2023-04-03T00:37:14;96993.47;;;14.61;36.31
44079;BME280;29744;49.078;12.878;2023-04-03T00:42:14;96993.47;;;14.61;36.33
44079;BME280;29744;49.078;12.878;2023-04-03T00:47:16;96991.88;;;14.60;36.11
44079;BME280;29744;49.078;12.878;2023-04-03T00:52:19;96987.59;;;14.59;36.59
44079;BME280;29744;49.078;12.878;2023-04-03T00:57:22;96981.69;;;14.57;36.04
44079;BME280;29744;49.078;12.878;2023-04-03T01:02:23;96987.41;;;14.56;36.32
44079;BME280;29744;49.078;12.878;2023-04-03T01:07:26;96986.59;;;14.55;36.55
44079;BME280;29744;49.078;12.878;2023-04-03T01:12:36;96988.81;;;14.53;36.25
44079;BME280;29744;49.078;12.878;2023-04-03T01:17:43;96985.31;;;14.53;36.38
44079;BME280;29744;49.078;12.878;2023-04-03T01:27:50;96992.13;;;14.50;36.25
44079;BME280;29744;49.078;12.878;2023-04-03T01:32:50;96995.16;;;14.48;36.18
44079;BME280;29744;49.078;12.878;2023-04-03T01:37:51;96990.06;;;14.47;36.72
44079;BME280;29744;49.078;12.878;2023-04-03T01:42:51;96999.25;;;14.46;36.14
44079;BME280;29744;49.078;12.878;2023-04-03T01:47:51;97001.16;;;14.45;36.18
44079;BME280;29744;49.078;12.878;2023-04-03T01:52:51;96993.38;;;14.44;36.39
44079;BME280;29744;49.078;12.878;2023-04-03T01:57:52;97004.16;;;14.44;36.39
44079;BME280;29744;49.078;12.878;2023-04-03T02:02:52;96994.47;;;14.43;36.54
44079;BME280;29744;49.078;12.878;2023-04-03T02:07:53;96996.38;;;14.42;36.44
44079;BME280;29744;49.078;12.878;2023-04-03T02:12:53;97000.50;;;14.40;36.69
44079;BME280;29744;49.078;12.878;2023-04-03T02:17:53;97002.41;;;14.39;36.50
44079;BME280;29744;49.078;12.878;2023-04-03T02:22:54;97003.50;;;14.38;36.75
44079;BME280;29744;49.078;12.878;2023-04-03T02:27:54;97008.09;;;14.38;36.73
44079;BME280;29744;49.078;12.878;2023-04-03T02:32:54;96998.41;;;14.37;36.33
44079;BME280;29744;49.078;12.878;2023-04-03T02:37:55;97006.50;;;14.37;36.57
44079;BME280;29744;49.078;12.878;2023-04-03T02:42:56;96999.53;;;14.36;36.73
44079;BME280;29744;49.078;12.878;2023-04-03T02:47:56;97000.63;;;14.35;36.32
44079;BME280;29744;49.078;12.878;2023-04-03T02:52:56;97007.13;;;14.34;36.28
44079;BME280;29744;49.078;12.878;2023-04-03T02:57:56;97005.53;;;14.33;36.28
44079;BME280;29744;49.078;12.878;2023-04-03T03:02:57;97006.63;;;14.32;36.47
44079;BME280;29744;49.078;12.878;2023-04-03T03:07:57;97003.94;;;14.32;36.35
44079;BME280;29744;49.078;12.878;2023-04-03T03:12:57;97005.34;;;14.29;36.38
44079;BME280;29744;49.078;12.878;2023-04-03T03:17:58;97008.06;;;14.29;36.76
44079;BME280;29744;49.078;12.878;2023-04-03T03:22:58;97006.47;;;14.28;36.42
44079;BME280;29744;49.078;12.878;2023-04-03T03:27:58;97010.75;;;14.29;36.85
44079;BME280;29744;49.078;12.878;2023-04-03T03:32:58;97007.25;;;14.29;36.38
44079;BME280;29744;49.078;12.878;2023-04-03T03:37:59;97005.66;;;14.28;36.65
44079;BME280;29744;49.078;12.878;2023-04-03T03:42:59;97009.47;;;14.27;36.37
44079;BME280;29744;49.078;12.878;2023-04-03T03:48:00;97009.16;;;14.28;36.47
44079;BME280;29744;49.078;12.878;2023-04-03T03:53:01;97004.75;;;14.32;36.25
44079;BME280;29744;49.078;12.878;2023-04-03T03:58:01;97000.31;;;14.36;36.25
44079;BME280;29744;49.078;12.878;2023-04-03T04:03:01;97006.56;;;14.45;36.25
44079;BME280;29744;49.078;12.878;2023-04-03T04:08:02;97005.00;;;14.53;36.04
44079;BME280;29744;49.078;12.878;2023-04-03T04:13:02;97007.13;;;14.65;36.30
44079;BME280;29744;49.078;12.878;2023-04-03T04:18:02;97003.84;;;14.76;36.31
44079;BME280;29744;49.078;12.878;2023-04-03T04:23:03;97010.25;;;14.89;36.01
44079;BME280;29744;49.078;12.878;2023-04-03T04:28:04;97013.16;;;15.01;36.40
44079;BME280;29744;49.078;12.878;2023-04-03T04:33:04;97014.19;;;15.14;36.05
44079;BME280;29744;49.078;12.878;2023-04-03T04:38:05;97016.28;;;15.26;35.92
44079;BME280;29744;49.078;12.878;2023-04-03T04:43:05;97016.47;;;15.38;35.71
44079;BME280;29744;49.078;12.878;2023-04-03T04:48:06;97022.88;;;15.51;35.66
44079;BME280;29744;49.078;12.878;2023-04-03T04:53:06;97025.59;;;15.59;35.70
44079;BME280;29744;49.078;12.878;2023-04-03T04:58:06;97026.06;;;15.70;35.62
44079;BME280;29744;49.078;12.878;2023-04-03T05:03:07;97024.50;;;15.77;35.45
44079;BME280;29744;49.078;12.878;2023-04-03T05:08:07;97029.47;;;15.84;35.16
44079;BME280;29744;49.078;12.878;2023-04-03T05:13:08;97032.00;;;15.89;35.36
44079;BME280;29744;49.078;12.878;2023-04-03T05:18:08;97045.38;;;15.94;35.09
44079;BME280;29744;49.078;12.878;2023-04-03T05:23:10;97040.13;;;15.98;34.99
44079;BME280;29744;49.078;12.878;2023-04-03T05:28:11;97039.81;;;15.99;34.91
44079;BME280;29744;49.078;12.878;2023-04-03T05:33:11;97051.09;;;16.01;35.31
44079;BME280;29744;49.078;12.878;2023-04-03T05:38:12;97051.09;;;16.01;34.90
44079;BME280;29744;49.078;12.878;2023-04-03T05:43:12;97058.91;;;16.03;35.40
44079;BME280;29744;49.078;12.878;2023-04-03T05:48:13;97050.31;;;16.01;35.08
44079;BME280;29744;49.078;12.878;2023-04-03T05:53:20;97063.03;;;16.00;34.99
44079;BME280;29744;49.078;12.878;2023-04-03T05:58:21;97066.06;;;15.99;34.99
44079;BME280;29744;49.078;12.878;2023-04-03T06:03:22;97072.59;;;15.98;35.10
44079;BME280;29744;49.078;12.878;2023-04-03T06:08:22;97072.91;;;15.96;35.11
44079;BME280;29744;49.078;12.878;2023-04-03T06:13:23;97074.34;;;15.94;34.91
44079;BME280;29744;49.078;12.878;2023-04-03T06:18:24;97084.66;;;15.92;34.99
44079;BME280;29744;49.078;12.878;2023-04-03T06:23:24;97079.09;;;15.88;35.01
44079;BME280;29744;49.078;12.878;2023-04-03T06:28:25;97090.25;;;15.87;35.29
44079;BME280;29744;49.078;12.878;2023-04-03T06:33:25;97087.06;;;15.85;35.23
44079;BME280;29744;49.078;12.878;2023-04-03T06:38:26;97102.78;;;15.83;35.21
44079;BME280;29744;49.078;12.878;2023-04-03T06:43:26;97111.22;;;15.81;35.34
44079;BME280;29744;49.078;12.878;2023-04-03T06:48:26;97097.19;;;15.79;34.81
44079;BME280;29744;49.078;12.878;2023-04-03T06:53:27;97100.53;;;15.76;34.93
44079;BME280;29744;49.078;12.878;2023-04-03T06:58:27;97108.16;;;15.74;35.24
44079;BME280;29744;49.078;12.878;2023-04-03T07:03:27;97108.47;;;15.72;35.16
44079;BME280;29744;49.078;12.878;2023-04-03T07:08:28;97118.81;;;15.70;35.36
44079;BME280;29744;49.078;12.878;2023-04-03T07:13:28;97129.13;;;15.68;34.82
44079;BME280;29744;49.078;12.878;2023-04-03T07:18:29;97135.19;;;15.65;35.34
44079;BME280;29744;49.078;12.878;2023-04-03T07:23:29;97142.81;;;15.63;35.31
44079;BME280;29744;49.078;12.878;2023-04-03T07:28:30;97153.13;;;15.61;35.25
44079;BME280;29744;49.078;12.878;2023-04-03T07:33:30;97155.34;;;15.59;35.17
44079;BME280;29744;49.078;12.878;2023-04-03T07:38:31;97154.88;;;15.57;34.98
44079;BME280;29744;49.078;12.878;2023-04-03T07:43:31;97150.88;;;15.55;35.02
44079;BME280;29744;49.078;12.878;2023-04-03T07:48:31;97162.00;;;15.53;35.24
44079;BME280;29744;49.078;12.878;2023-04-03T07:53:32;97171.53;;;15.51;35.33
44079;BME280;29744;49.078;12.878;2023-04-03T07:58:33;97176.47;;;15.49;35.22
44079;BME280;29744;49.078;12.878;2023-04-03T08:03:33;97180.59;;;15.46;34.92
44079;BME280;29744;49.078;12.878;2023-04-03T08:08:34;97166.09;;;15.42;35.10
44079;BME280;29744;49.078;12.878;2023-04-03T08:13:35;97181.84;;;15.40;35.17
44079;BME280;29744;49.078;12.878;2023-04-03T08:18:35;97185.16;;;15.37;35.33
44079;BME280;29744;49.078;12.878;2023-04-03T08:23:36;97191.66;;;15.36;35.13
44079;BME280;29744;49.078;12.878;2023-04-03T08:28:37;97185.78;;;15.34;35.29
44079;BME280;29744;49.078;12.878;2023-04-03T08:33:38;97182.28;;;15.33;35.07
44079;BME280;29744;49.078;12.878;2023-04-03T08:38:39;97180.19;;;15.30;35.36
44079;BME280;29744;49.078;12.878;2023-04-03T08:43:56;97169.22;;;15.27;35.05
44079;BME280;29744;49.078;12.878;2023-04-03T08:48:59;97179.22;;;15.26;35.70
44079;BME280;29744;49.078;12.878;2023-04-03T08:54:03;97177.13;;;15.23;35.47
44079;BME280;29744;49.078;12.878;2023-04-03T08:59:11;97186.66;;;15.21;35.48
44079;BME280;29744;49.078;12.878;2023-04-03T09:04:15;97191.56;;;15.19;35.35
44079;BME280;29744;49.078;12.878;2023-04-03T09:09:32;97204.59;;;15.17;35.48
44079;BME280;29744;49.078;12.878;2023-04-03T09:14:38;97196.31;;;15.13;35.10
44079;BME280;29744;49.078;12.878;2023-04-03T09:25:01;97196.44;;;15.08;35.23
44079;BME280;29744;49.078;12.878;2023-04-03T09:30:02;97194.03;;;15.06;35.19
44079;BME280;29744;49.078;12.878;2023-04-03T09:35:15;97193.56;;;15.04;35.27
44079;BME280;29744;49.078;12.878;2023-04-03T09:45:30;97201.44;;;15.01;35.53
44079;BME280;29744;49.078;12.878;2023-04-03T09:50:31;97203.66;;;14.99;35.54
44079;BME280;29744;49.078;12.878;2023-04-03T09:55:32;97202.06;;;14.98;35.58
44079;BME280;29744;49.078;12.878;2023-04-03T10:00:37;97195.06;;;14.97;35.40
44079;BME280;29744;49.078;12.878;2023-04-03T10:05:41;97193.78;;;14.94;35.23
44079;BME280;29744;49.078;12.878;2023-04-03T10:10:44;97194.09;;;14.93;35.36
44079;BME280;29744;49.078;12.878;2023-04-03T10:15:55;97192.50;;;14.92;35.56
44079;BME280;29744;49.078;12.878;2023-04-03T10:21:00;97179.28;;;14.90;35.19
44079;BME280;29744;49.078;12.878;2023-04-03T10:26:23;97192.63;;;14.87;35.41
44079;BME280;29744;49.078;12.878;2023-04-03T10:42:15;97180.84;;;14.82;35.32
44079;BME280;29744;49.078;12.878;2023-04-03T10:47:22;97184.34;;;14.83;35.38
44079;BME280;29744;49.078;12.878;2023-04-03T10:52:49;97180.66;;;14.79;35.37
44079;BME280;29744;49.078;12.878;2023-04-03T10:57:56;97169.22;;;14.82;34.81
44079;BME280;29744;49.078;12.878;2023-04-03T11:03:03;97174.03;;;14.85;34.59
44079;BME280;29744;49.078;12.878;2023-04-03T11:08:09;97163.34;;;14.80;34.69
44079;BME280;29744;49.078;12.878;2023-04-03T11:13:16;97170.69;;;14.88;35.31
44079;BME280;29744;49.078;12.878;2023-04-03T11:18:44;97170.41;;;14.90;34.82
44079;BME280;29744;49.078;12.878;2023-04-03T11:23:45;97174.69;;;14.91;35.10
44079;BME280;29744;49.078;12.878;2023-04-03T11:28:52;97171.19;;;14.90;34.65
44079;BME280;29744;49.078;12.878;2023-04-03T11:44:36;97159.91;;;14.88;35.15
44079;BME280;29744;49.078;12.878;2023-04-03T11:49:58;97152.91;;;14.87;35.19
44079;BME280;29744;49.078;12.878;2023-04-03T11:54:59;97161.00;;;14.87;35.12
44079;BME280;29744;49.078;12.878;2023-04-03T11:59:59;97156.72;;;14.86;34.96
44079;BME280;29744;49.078;12.878;2023-04-03T12:05:28;97162.41;;;14.85;35.01
44079;BME280;29744;49.078;12.878;2023-04-03T12:10:29;97149.72;;;14.85;34.81
44079;BME280;29744;49.078;12.878;2023-04-03T12:15:50;97148.44;;;14.82;34.89
44079;BME280;29744;49.078;12.878;2023-04-03T12:26:03;97136.84;;;14.82;35.30
44079;BME280;29744;49.078;12.878;2023-04-03T12:31:07;97139.84;;;14.80;35.37
44079;BME280;29744;49.078;12.878;2023-04-03T12:36:15;97143.66;;;14.79;35.36
44079;BME280;29744;49.078;12.878;2023-04-03T12:42:18;97140.44;;;14.77;35.42
44079;BME280;29744;49.078;12.878;2023-04-03T12:46:59;97120.75;;;14.77;35.26
44079;BME280;29744;49.078;12.878;2023-04-03T12:52:03;97126.16;;;14.77;35.17
44079;BME280;29744;49.078;12.878;2023-04-03T12:57:10;97122.66;;;14.76;35.24
44079;BME280;29744;49.078;12.878;2023-04-03T13:02:23;97114.06;;;14.74;35.26
44079;BME280;29744;49.078;12.878;2023-04-03T13:07:30;97105.97;;;14.74;35.46
44079;BME280;29744;49.078;12.878;2023-04-03T13:12:35;97115.97;;;14.74;35.40
44079;BME280;29744;49.078;12.878;2023-04-03T13:17:38;97112.47;;;14.73;34.98
44079;BME280;29744;49.078;12.878;2023-04-03T13:27:51;97102.59;;;14.69;35.63
44079;BME280;29744;49.078;12.878;2023-04-03T13:32:53;97108.00;;;14.69;35.02
44079;BME280;29744;49.078;12.878;2023-04-03T13:37:57;97098.31;;;14.68;35.27
44079;BME280;29744;49.078;12.878;2023-04-03T13:43:04;97092.09;;;14.67;35.04
44079;BME280;29744;49.078;12.878;2023-04-03T13:48:19;97098.91;;;14.65;35.25
44079;BME280;29744;49.078;12.878;2023-04-03T13:53:20;97084.63;;;14.64;35.44
44079;BME280;29744;49.078;12.878;2023-04-03T13:58:23;97085.72;;;14.63;35.49
44079;BME280;29744;49.078;12.878;2023-04-03T14:03:43;97093.34;;;14.61;35.58
44079;BME280;29744;49.078;12.878;2023-04-03T14:08:45;97099.84;;;14.60;35.34
44079;BME280;29744;49.078;12.878;2023-04-03T14:13:46;97106.34;;;14.59;35.69
44079;BME280;29744;49.078;12.878;2023-04-03T14:18:48;97093.97;;;14.58;35.19
44079;BME280;29744;49.078;12.878;2023-04-03T14:23:49;97086.16;;;14.57;35.21
44079;BME280;29744;49.078;12.878;2023-04-03T14:28:52;97089.97;;;14.56;35.41
44079;BME280;29744;49.078;12.878;2023-04-03T14:33:53;97094.88;;;14.54;35.70
44079;BME280;29744;49.078;12.878;2023-04-03T14:38:55;97095.19;;;14.52;35.37
44079;BME280;29744;49.078;12.878;2023-04-03T14:43:55;97099.00;;;14.51;35.48
44079;BME280;29744;49.078;12.878;2023-04-03T14:48:56;97104.69;;;14.49;35.76
44079;BME280;29744;49.078;12.878;2023-04-03T14:53:56;97101.50;;;14.47;35.71
44079;BME280;29744;49.078;12.878;2023-04-03T14:58:59;97105.31;;;14.46;35.28
44079;BME280;29744;49.078;12.878;2023-04-03T15:04:00;97116.41;;;14.45;35.79
44079;BME280;29744;49.078;12.878;2023-04-03T15:09:00;97114.00;;;14.43;35.55
44079;BME280;29744;49.078;12.878;2023-04-03T15:14:01;97131.81;;;14.44;35.38
44079;BME280;29744;49.078;12.878;2023-04-03T15:19:01;97118.81;;;14.46;35.32
44079;BME280;29744;49.078;12.878;2023-04-03T15:24:02;97119.78;;;14.50;35.76
44079;BME280;29744;49.078;12.878;2023-04-03T15:29:03;97125.56;;;14.58;35.50
44079;BME280;29744;49.078;12.878;2023-04-03T15:34:04;97136.09;;;14.68;35.51
44079;BME280;29744;49.078;12.878;2023-04-03T15:39:04;97135.06;;;14.77;35.57
44079;BME280;29744;49.078;12.878;2023-04-03T15:44:04;97141.78;;;14.89;35.69
44079;BME280;29744;49.078;12.878;2023-04-03T15:49:05;97144.44;;;15.02;35.25
44079;BME280;29744;49.078;12.878;2023-04-03T15:54:05;97148.16;;;15.15;35.47
44079;BME280;29744;49.078;12.878;2023-04-03T15:59:06;97159.38;;;15.31;35.20
44079;BME280;29744;49.078;12.878;2023-04-03T16:04:08;97166.28;;;15.45;34.92
44079;BME280;29744;49.078;12.878;2023-04-03T16:09:09;97157.75;;;15.61;35.01
44079;BME280;29744;49.078;12.878;2023-04-03T16:14:10;97164.63;;;15.75;34.83
44079;BME280;29744;49.078;12.878;2023-04-03T16:19:10;97170.75;;;15.90;34.58
44079;BME280;29744;49.078;12.878;2023-04-03T16:24:10;97156.63;;;16.01;34.45
44079;BME280;29744;49.078;12.878;2023-04-03T16:29:11;97163.63;;;16.11;34.45
44079;BME280;29744;49.078;12.878;2023-04-03T16:34:11;97166.03;;;16.21;34.56
44079;BME280;29744;49.078;12.878;2023-04-03T16:39:12;97168.28;;;16.28;34.44
44079;BME280;29744;49.078;12.878;2023-04-03T16:44:12;97161.59;;;16.34;34.25
44079;BME280;29744;49.078;12.878;2023-04-03T16:49:13;97176.06;;;16.38;34.21
44079;BME280;29744;49.078;12.878;2023-04-03T16:54:14;97169.25;;;16.40;34.05
44079;BME280;29744;49.078;12.878;2023-04-03T16:59:14;97173.56;;;16.41;34.20
44079;BME280;29744;49.078;12.878;2023-04-03T17:04:15;97160.81;;;16.42;33.88
44079;BME280;29744;49.078;12.878;2023-04-03T17:09:15;97167.03;;;16.42;34.06
44079;BME280;29744;49.078;12.878;2023-04-03T17:14:16;97175.16;;;16.42;34.00
44079;BME280;29744;49.078;12.878;2023-04-03T17:19:17;97183.28;;;16.42;34.26
44079;BME280;29744;49.078;12.878;2023-04-03T17:24:17;97180.09;;;16.40;33.93
44079;BME280;29744;49.078;12.878;2023-04-03T17:29:18;97181.50;;;16.38;34.02
44079;BME280;29744;49.078;12.878;2023-04-03T17:34:18;97190.72;;;16.37;34.28
44079;BME280;29744;49.078;12.878;2023-04-03T17:39:18;97202.19;;;16.34;34.05
44079;BME280;29744;49.078;12.878;2023-04-03T17:44:18;97197.41;;;16.31;34.20
44079;BME280;29744;49.078;12.878;2023-04-03T17:49:19;97186.09;;;16.29;34.10
44079;BME280;29744;49.078;12.878;2023-04-03T17:54:21;97194.84;;;16.26;34.28
44079;BME280;29744;49.078;12.878;2023-04-03T17:59:21;97193.56;;;16.23;33.93
44079;BME280;29744;49.078;12.878;2023-04-03T18:04:21;97185.28;;;16.20;33.90
44079;BME280;29744;49.078;12.878;2023-04-03T18:09:26;97198.34;;;16.18;34.25
44079;BME280;29744;49.078;12.878;2023-04-03T18:14:28;97207.56;;;16.17;33.84
44079;BME280;29744;49.078;12.878;2023-04-03T18:19:28;97204.06;;;16.16;34.26
44079;BME280;29744;49.078;12.878;2023-04-03T18:24:31;97214.59;;;16.18;34.17
44079;BME280;29744;49.078;12.878;2023-04-03T18:29:35;97213.16;;;16.20;34.34
44079;BME280;29744;49.078;12.878;2023-04-03T18:34:36;97217.13;;;16.23;34.13
44079;BME280;29744;49.078;12.878;2023-04-03T18:39:37;97211.88;;;16.26;34.31
44079;BME280;29744;49.078;12.878;2023-04-03T18:44:38;97211.25;;;16.29;33.93
44079;BME280;29744;49.078;12.878;2023-04-03T18:49:40;97214.13;;;16.33;33.95
44079;BME280;29744;49.078;12.878;2023-04-03T18:54:41;97217.63;;;16.33;34.35
44079;BME280;29744;49.078;12.878;2023-04-03T18:59:42;97226.22;;;16.35;33.98
44079;BME280;29744;49.078;12.878;2023-04-03T19:04:42;97218.91;;;16.36;34.42
44079;BME280;29744;49.078;12.878;2023-04-03T19:09:43;97214.59;;;16.35;34.04
44079;BME280;29744;49.078;12.878;2023-04-03T19:14:43;97215.72;;;16.34;34.03
44079;BME280;29744;49.078;12.878;2023-04-03T19:19:43;97212.22;;;16.33;34.17
44079;BME280;29744;49.078;12.878;2023-04-03T19:24:44;97210.94;;;16.31;34.49
44079;BME280;29744;49.078;12.878;2023-04-03T19:29:47;97211.25;;;16.29;34.26
44079;BME280;29744;49.078;12.878;2023-04-03T19:34:48;97213.78;;;16.26;34.28
44079;BME280;29744;49.078;12.878;2023-04-03T19:39:48;97218.72;;;16.24;34.16
44079;BME280;29744;49.078;12.878;2023-04-03T19:44:50;97214.75;;;16.21;34.53
44079;BME280;29744;49.078;12.878;2023-04-03T19:49:50;97215.38;;;16.18;34.23
44079;BME280;29744;49.078;12.878;2023-04-03T19:54:51;97214.91;;;16.16;34.37
44079;BME280;29744;49.078;12.878;2023-04-03T19:59:51;97221.72;;;16.14;34.47
44079;BME280;29744;49.078;12.878;2023-04-03T20:04:51;97219.34;;;16.12;34.11
44079;BME280;29744;49.078;12.878;2023-04-03T20:09:51;97212.97;;;16.08;34.47
44079;BME280;29744;49.078;12.878;2023-04-03T20:14:52;97217.09;;;16.05;34.17
44079;BME280;29744;49.078;12.878;2023-04-03T20:19:52;97218.53;;;16.03;34.62
44079;BME280;29744;49.078;12.878;2023-04-03T20:24:53;97211.84;;;16.00;34.56
44079;BME280;29744;49.078;12.878;2023-04-03T20:29:53;97208.97;;;15.97;34.60
44079;BME280;29744;49.078;12.878;2023-04-03T20:34:53;97211.19;;;15.95;34.58
44079;BME280;29744;49.078;12.878;2023-04-03T20:39:54;97211.00;;;15.91;34.43
44079;BME280;29744;49.078;12.878;2023-04-03T20:44:54;97214.66;;;15.87;34.63
44079;BME280;29744;49.078;12.878;2023-04-03T20:49:56;97219.59;;;15.85;34.25
44079;BME280;29744;49.078;12.878;2023-04-03T20:54:56;97216.69;;;15.81;34.53
44079;BME280;29744;49.078;12.878;2023-04-03T20:59:56;97218.09;;;15.78;34.53
44079;BME280;29744;49.078;12.878;2023-04-03T21:04:57;97214.41;;;15.74;34.36
44079;BME280;29744;49.078;12.878;2023-04-03T21:20:45;97221.69;;;15.65;34.38
44079;BME280;29744;49.078;12.878;2023-04-03T21:25:47;97221.22;;;15.63;34.72
44079;BME280;29744;49.078;12.878;2023-04-03T21:30:48;97228.03;;;15.61;34.59
44079;BME280;29744;49.078;12.878;2023-04-03T21:35:48;97233.59;;;15.56;34.41
44079;BME280;29744;49.078;12.878;2023-04-03T21:40:56;97235.00;;;15.53;34.76
44079;BME280;29744;49.078;12.878;2023-04-03T21:45:58;97232.13;;;15.50;34.85
44079;BME280;29744;49.078;12.878;2023-04-03T21:51:05;97230.03;;;15.46;34.92
44079;BME280;29744;49.078;12.878;2023-04-03T21:56:05;97229.88;;;15.43;34.88
44079;BME280;29744;49.078;12.878;2023-04-03T22:01:13;97226.97;;;15.39;34.73
44079;BME280;29744;49.078;12.878;2023-04-03T22:06:15;97227.59;;;15.36;34.91
44079;BME280;29744;49.078;12.878;2023-04-03T22:11:15;97215.81;;;15.32;35.05
44079;BME280;29744;49.078;12.878;2023-04-03T22:16:16;97221.03;;;15.29;35.23
44079;BME280;29744;49.078;12.878;2023-04-03T22:21:16;97222.44;;;15.26;34.90
44079;BME280;29744;49.078;12.878;2023-04-03T22:26:16;97218.47;;;15.24;35.02
44079;BME280;29744;49.078;12.878;2023-04-03T22:31:17;97212.09;;;15.20;35.12
44079;BME280;29744;49.078;12.878;2023-04-03T22:36:18;97212.41;;;15.18;35.19
44079;BME280;29744;49.078;12.878;2023-04-03T22:41:18;97217.63;;;15.14;35.28
44079;BME280;29744;49.078;12.878;2023-04-03T22:46:18;97209.03;;;15.12;35.34
44079;BME280;29744;49.078;12.878;2023-04-03T22:51:19;97207.72;;;15.10;34.88
44079;BME280;29744;49.078;12.878;2023-04-03T22:56:19;97204.84;;;15.06;34.94
44079;BME280;29744;49.078;12.878;2023-04-03T23:01:20;97207.84;;;15.05;34.94
44079;BME280;29744;49.078;12.878;2023-04-03T23:06:23;97211.97;;;15.02;35.20
44079;BME280;29744;49.078;12.878;2023-04-03T23:11:23;97207.97;;;15.00;35.06
44079;BME280;29744;49.078;12.878;2023-04-03T23:16:23;97199.66;;;14.96;35.36
44079;BME280;29744;49.078;12.878;2023-04-03T23:21:23;97204.59;;;14.94;35.21
44079;BME280;29744;49.078;12.878;2023-04-03T23:26:24;97206.00;;;14.92;35.10
44079;BME280;29744;49.078;12.878;2023-04-03T23:31:25;97199.31;;;14.89;35.42
44079;BME280;29744;49.078;12.878;2023-04-03T23:36:25;97203.41;;;14.87;35.60
44079;BME280;29744;49.078;12.878;2023-04-03T23:41:26;97202.94;;;14.85;35.68
44079;BME280;29744;49.078;12.878;2023-04-03T23:46:26;97189.25;;;14.81;35.21
44079;BME280;29744;49.078;12.878;2023-04-03T23:51:26;97186.84;;;14.79;35.72
44079;BME280;29744;49.078;12.878;2023-04-03T23:56:27;97180.94;;;14.77;35.79
